Latest Weather Observations for Badgerys Creek

IDN60901

Issued at 8:45 pm EDT Sunday 26 October 2014 (issued every 10 minutes, with the page automatically refreshed every 10 minutes)

About weather observations | Map of Sydney area stations | Latest observations for Sydney area | Other Formats
Station Details ID: 067108 Name: BADGERYS CREEK AWS Lat: -33.90 Lon: 150.73 Height: 81.2 m
Data from the previous 72 hours. | See also: Recent months at Badgerys Creek
Date/Time
EDT
Tmp

°C
App
Tmp
°C
Dew
Point
°C
Rel
Hum
%
Delta-T

°C
Wind Press
QNH
hPa
Press
MSL
hPa
Rain
since
9 am
mm
Dir
 
Spd
km/h
Gust
km/h
Spd
kts
Gust
kts
26/08:30pm 18.6 19.3 15.7 83 1.7 ESE 6 11 3 6 1013.4 1013.3 0.0
26/08:00pm 19.2 19.4 15.7 80 2.1 E 9 13 5 7 1012.7 1012.6 0.0
26/07:30pm 19.9 19.7 15.7 77 2.5 E 11 17 6 9 1011.8 1011.6 0.0
26/07:00pm 20.8 20.3 16.0 74 2.9 E 13 19 7 10 1011.2 1011.0 0.0
26/06:30pm 22.0 21.9 16.1 69 3.6 ESE 11 17 6 9 1010.4 1010.2 0.0
26/06:00pm 23.2 23.1 16.0 64 4.4 ESE 11 15 6 8 1009.7 1009.5 0.0
26/05:30pm 24.7 23.5 16.2 59 5.2 SE 17 24 9 13 1008.7 1008.5 0.0
26/05:00pm 26.1 24.5 16.1 54 6.2 ESE 19 30 10 16 1008.0 1007.8 0.0
26/04:30pm 27.9 26.0 16.8 50 6.9 SE 22 28 12 15 1007.5 1007.3 0.0
26/04:00pm 29.9 28.9 18.0 48 7.6 E 20 28 11 15 1007.0 1006.8 0.0
26/03:30pm 31.1 29.3 17.8 45 8.5 E 24 33 13 18 1006.7 1006.5 0.0
26/03:00pm 34.6 34.8 12.9 27 13.2 E 4 13 2 7 1006.8 1006.6 0.0
26/02:30pm 33.9 33.8 13.9 30 12.2 NNE 7 15 4 8 1007.0 1006.8 0.0
26/02:00pm 33.1 33.3 14.7 33 11.4 NNE 7 13 4 7 1007.6 1007.4 0.0
26/01:30pm 32.6 33.1 15.6 36 10.6 NE 7 15 4 8 1007.9 1007.7 0.0
26/01:00pm 31.3 32.4 16.5 41 9.3 E 6 9 3 5 1008.3 1008.1 0.0
26/12:30pm 30.0 31.6 17.8 48 7.8 ESE 6 11 3 6 1008.5 1008.3 0.0
26/12:00pm 29.0 31.9 19.0 54 6.5 SE 2 6 1 3 1009.0 1008.8 0.0
26/11:30am 27.4 29.5 18.9 59 5.5 NE 6 9 3 5 1009.0 1008.8 0.0
26/11:00am 25.6 27.2 17.8 62 4.9 NNE 6 9 3 5 1009.4 1009.2 0.0
26/10:30am 25.0 26.9 17.7 64 4.6 NNE 4 7 2 4 1009.9 1009.7 0.0
26/10:00am 23.8 25.9 18.0 70 3.6 N 4 6 2 3 1010.2 1010.0 0.0
26/09:30am 22.3 24.8 17.2 73 3.1 CALM 0 4 0 2 1010.5 1010.3 0.0
26/09:00am 21.6 23.9 17.6 78 2.5 WSW 2 6 1 3 1010.7 1010.5 0.0
26/08:30am 20.2 22.3 17.2 83 1.8 WNW 2 6 1 3 1010.9 1010.7 0.0
26/08:00am 19.3 21.5 17.4 89 1.2 S 2 6 1 3 1011.1 1010.9 0.0
26/07:30am 18.7 20.5 17.4 92 0.8 SW 4 7 2 4 1011.3 1011.1 0.0
26/07:00am 18.6 20.5 17.6 94 0.6 SW 4 6 2 3 1011.0 1010.8 0.0
26/06:30am 18.5 20.4 17.7 95 0.5 WSW 4 6 2 3 1011.0 1010.8 0.0
26/06:00am 18.4 21.0 17.4 94 0.6 N 0 0 0 0 1010.6 1010.4 0.0
26/05:30am 18.3 20.7 17.1 93 0.7 CALM 0 0 0 0 1010.8 1010.6 0.0
26/05:00am 18.4 21.0 17.6 95 0.5 CALM 0 0 0 0 1010.9 1010.7 0.0
26/04:30am 18.0 20.4 17.0 94 0.6 CALM 0 0 0 0 1011.2 1011.0 0.0
26/04:00am 17.7 19.2 16.6 93 0.7 N 4 4 2 2 1011.4 1011.2 0.0
26/03:30am 18.3 20.5 16.6 90 1.0 CALM 0 0 0 0 1011.8 1011.6 0.0
26/03:00am 18.8 21.2 17.1 90 1.0 CALM 0 6 0 3 1012.3 1012.1 0.0
26/02:30am 18.7 20.4 17.2 91 0.9 ENE 4 6 2 3 1012.7 1012.6 0.0
26/02:00am 18.6 20.6 16.9 90 1.0 NNE 2 4 1 2 1013.3 1013.2 0.0
26/01:30am 18.7 20.3 17.0 90 1.0 NNE 4 6 2 3 1013.6 1013.5 0.0
26/01:00am 18.8 20.7 16.8 88 1.2 NE 2 4 1 2 1014.0 1013.9 0.0
26/12:30am 18.8 19.4 16.9 89 1.2 N 9 11 5 6 1014.8 1014.7 0.0
26/12:00am 19.1 20.4 17.1 88 1.2 NNE 6 9 3 5 1016.1 1016.0 0.0
 
Date/Time
EDT
Tmp

°C
App
Tmp
°C
Dew
Point
°C
Rel
Hum
%
Delta-T

°C
Wind Press
QNH
hPa
Press
MSL
hPa
Rain
since
9 am
mm
Dir
 
Spd
km/h
Gust
km/h
Spd
kts
Gust
kts
25/11:30pm 19.5 20.6 16.5 83 1.8 SE 6 13 3 7 1016.4 1016.3 0.0
25/11:00pm 19.6 20.1 16.6 83 1.8 S 9 13 5 7 1016.9 1016.8 0.0
25/10:30pm 19.5 20.7 16.9 85 1.6 SE 6 11 3 6 1016.8 1016.7 0.0
25/10:00pm 19.4 20.6 16.8 85 1.6 ESE 6 9 3 5 1016.0 1015.9 0.0
25/09:30pm 19.7 20.7 16.9 84 1.7 ESE 7 9 4 5 1016.6 1016.5 0.0
25/09:00pm 19.9 20.5 16.9 83 1.8 E 9 15 5 8 1016.9 1016.8 0.0
25/08:30pm 19.7 20.0 16.9 84 1.7 E 11 15 6 8 1016.0 1015.9 0.0
25/08:00pm 20.1 20.8 17.1 83 1.8 E 9 13 5 7 1015.6 1015.5 0.0
25/07:30pm 20.8 21.6 17.2 80 2.2 E 9 15 5 8 1015.0 1014.9 0.0
25/07:00pm 21.9 20.8 17.3 75 2.8 E 19 24 10 13 1014.0 1013.9 0.0
25/06:30pm 22.9 24.2 17.1 70 3.6 E 6 7 3 4 1014.6 1014.5 0.0
25/06:00pm 23.7 23.6 17.0 66 4.1 ESE 13 20 7 11 1013.6 1013.5 0.0
25/05:30pm 25.0 24.6 17.2 62 4.9 E 15 19 8 10 1013.2 1013.1 0.0
25/05:00pm 26.5 25.6 17.8 58 5.5 E 19 24 10 13 1013.0 1012.9 0.0
25/04:30pm 27.4 26.8 17.6 55 6.2 ESE 17 22 9 12 1012.6 1012.5 0.0
25/04:00pm 28.4 27.7 18.2 54 6.5 ENE 19 26 10 14 1012.2 1012.0 0.0
25/03:30pm 28.8 27.8 18.0 52 6.9 E 20 28 11 15 1012.6 1012.5 0.0
25/03:00pm 29.7 28.5 18.5 51 7.2 E 22 30 12 16 1012.5 1012.4 0.0
25/02:30pm 30.8 30.0 18.5 47 8.0 E 20 30 11 16 1012.6 1012.5 0.0
25/02:00pm 32.8 31.8 13.4 30 11.7 E 11 19 6 10 1012.9 1012.8 0.0
25/01:30pm 32.1 32.0 13.8 33 11.1 E 7 11 4 6 1013.4 1013.3 0.0
25/01:00pm 32.0 32.1 15.5 37 10.3 NE 9 15 5 8 1013.7 1013.6 0.0
25/12:30pm 30.8 31.3 15.6 39 9.4 NNE 7 11 4 6 1014.0 1013.9 0.0
25/12:00pm 30.7 32.1 16.3 42 9.0 NNE 4 11 2 6 1014.5 1014.4 0.0
25/11:30am 29.9 31.3 16.3 43 8.5 E 4 7 2 4 1014.9 1014.8 0.0
25/11:00am 28.4 30.5 18.2 54 6.5 N 4 9 2 5 1015.2 1015.1 0.0
25/10:30am 26.4 27.6 16.9 56 5.9 NNE 6 9 3 5 1015.3 1015.2 0.0
25/10:00am 25.0 26.8 18.4 66 4.2 N 6 7 3 4 1015.5 1015.4 0.0
25/09:30am 23.5 25.5 17.9 71 3.5 NNE 4 6 2 3 1015.4 1015.3 0.0
25/09:00am 21.3 23.4 18.1 82 2.0 N 4 7 2 4 1015.5 1015.4 0.2
25/08:30am 19.2 21.6 18.0 93 0.7 N 2 4 1 2 1015.5 1015.4 0.2
25/08:00am 17.6 20.2 17.6 100 0.0 CALM 0 0 0 0 1015.4 1015.3 0.2
25/07:30am 15.7 16.8 15.7 100 0.0 S 4 4 2 2 1015.3 1015.2 0.2
25/07:00am 14.9 16.5 14.9 100 0.0 CALM 0 2 0 1 1014.8 1014.7 0.2
25/06:30am 14.2 14.8 14.2 100 0.0 S 4 6 2 3 1014.3 1014.2 0.2
25/06:00am 14.4 15.1 14.4 100 0.0 SSW 4 6 2 3 1013.8 1013.7 0.2
25/05:30am 14.4 15.0 14.2 99 0.1 SSW 4 7 2 4 1013.2 1013.1 0.2
25/05:00am 15.2 16.4 14.9 98 0.2 SSW 2 6 1 3 1013.0 1012.9 0.2
25/04:30am 16.1 17.9 15.5 96 0.4 CALM 0 0 0 0 1012.8 1012.7 0.2
25/04:00am 16.6 18.4 15.6 94 0.6 CALM 0 0 0 0 1012.5 1012.4 0.2
25/03:30am 17.2 19.3 16.2 94 0.6 CALM 0 0 0 0 1012.5 1012.4 0.2
25/03:00am 17.1 19.1 16.0 93 0.7 CALM 0 0 0 0 1012.4 1012.3 0.2
25/02:30am 18.2 20.4 16.5 90 1.0 CALM 0 0 0 0 1012.3 1012.1 0.2
25/02:00am 18.4 19.9 16.7 90 1.0 SSW 4 4 2 2 1012.4 1012.3 0.2
25/01:30am 18.5 19.6 16.7 89 1.1 SSW 6 6 3 3 1012.6 1012.5 0.2
25/01:00am 19.1 20.3 16.9 87 1.3 SSW 6 6 3 3 1012.6 1012.5 0.2
25/12:30am 19.6 21.1 16.6 83 1.8 SSW 4 6 2 3 1012.8 1012.7 0.2
25/12:00am 20.5 21.8 17.1 81 2.1 SSE 6 11 3 6 1012.8 1012.7 0.2
 
Date/Time
EDT
Tmp

°C
App
Tmp
°C
Dew
Point
°C
Rel
Hum
%
Delta-T

°C
Wind Press
QNH
hPa
Press
MSL
hPa
Rain
since
9 am
mm
Dir
 
Spd
km/h
Gust
km/h
Spd
kts
Gust
kts
24/11:30pm 20.4 21.6 17.4 83 1.8 SSW 7 9 4 5 1012.8 1012.7 0.2
24/11:00pm 19.9 20.6 17.1 84 1.7 WSW 9 13 5 7 1012.6 1012.5 0.2
24/10:30pm 20.5 21.7 16.9 80 2.2 SSE 6 7 3 4 1012.6 1012.5 0.2
24/10:00pm 21.2 22.5 17.0 77 2.6 ESE 6 6 3 3 1012.6 1012.5 0.2
24/09:30pm 22.5 24.5 17.0 71 3.4 N 2 4 1 2 1013.2 1013.1 0.2
24/09:00pm 23.4 24.6 16.9 67 4.0 NNE 6 7 3 4 1013.2 1013.1 0.2
24/08:30pm 24.1 25.2 16.6 63 4.6 NE 6 9 3 5 1012.6 1012.5 0.2
24/08:00pm 24.4 24.8 16.4 61 4.9 NE 9 13 5 7 1012.3 1012.1 0.2
24/07:30pm 25.1 25.5 16.3 58 5.4 NE 9 15 5 8 1012.2 1012.0 0.2
24/07:00pm 26.5 26.1 16.1 52 6.4 NE 13 19 7 10 1011.9 1011.7 0.2
24/06:30pm 27.3 26.6 16.3 51 6.8 NE 15 20 8 11 1011.6 1011.4 0.2
24/06:00pm 27.8 27.0 17.0 51 6.8 ENE 17 22 9 12 1011.6 1011.4 0.2
24/05:30pm 29.3 27.7 15.1 42 8.7 NNE 17 24 9 13 1011.6 1011.4 0.2
24/05:00pm 29.7 28.0 14.7 40 9.2 NE 17 22 9 12 1011.8 1011.6 0.2
24/04:30pm 29.1 26.7 14.5 41 8.9 NNE 20 32 11 17 1012.1 1011.9 0.2
24/04:00pm 29.6 27.1 14.2 39 9.3 NNE 20 35 11 19 1012.3 1012.1 0.2
24/03:30pm 29.8 27.1 14.7 39 9.2 N 22 33 12 18 1012.9 1012.8 0.2
24/03:00pm 29.2 27.0 15.0 42 8.7 NNE 20 28 11 15 1013.5 1013.4 0.2
24/02:30pm 28.7 27.1 15.9 45 7.9 NNE 19 28 10 15 1014.2 1014.1 0.2
24/02:00pm 27.6 26.0 16.6 51 6.8 NNE 20 28 11 15 1014.9 1014.8 0.2
24/01:30pm 26.5 25.1 17.0 56 5.9 NNE 20 28 11 15 1015.7 1015.6 0.2
24/01:00pm 25.4 24.4 15.7 55 5.9 NNE 15 24 8 13 1016.5 1016.4 0.2
24/12:30pm 25.2 24.7 15.8 56 5.7 NNE 13 22 7 12 1017.1 1017.0 0.2
24/12:00pm 24.5 24.5 17.2 63 4.5 NNE 13 20 7 11 1017.8 1017.6 0.2
24/11:30am 23.0 23.2 16.8 68 3.8 N 11 19 6 10 1018.6 1018.4 0.2
24/11:00am 22.1 23.1 16.8 72 3.2 NNE 7 13 4 7 1019.4 1019.2 0.0
24/10:30am 21.2 23.1 16.6 75 2.8 NE 2 6 1 3 1020.1 1019.9 0.0
24/10:00am 19.6 19.7 16.6 83 1.8 N 11 19 6 10 1020.4 1020.2 0.0
24/09:30am 19.9 20.8 16.0 78 2.3 WNW 6 11 3 6 1020.7 1020.5 0.0
24/09:00am 20.1 21.5 15.5 75 2.7 NW 2 7 1 4 1020.4 1020.2 0.0
24/08:30am 19.5 20.6 15.6 78 2.3 WNW 4 6 2 3 1020.3 1020.1 0.0
24/08:00am 18.4 19.2 15.8 85 1.5 WNW 6 7 3 4 1020.0 1019.8 0.0
24/07:30am 17.4 18.5 15.7 90 1.0 WNW 4 7 2 4 1020.2 1020.0 0.0
24/07:00am 16.6 17.3 15.5 93 0.6 W 6 9 3 5 1020.4 1020.2 0.0
24/06:30am 16.5 16.9 15.2 92 0.8 W 7 9 4 5 1020.5 1020.3 0.0
24/06:00am 16.4 16.5 15.4 94 0.6 SSW 9 19 5 10 1020.2 1020.0 0.0
24/05:30am 16.6 18.3 15.1 91 0.9 CALM 0 0 0 0 1019.5 1019.3 0.0
24/05:00am 16.7 17.6 15.1 90 0.9 SE 4 7 2 4 1019.8 1019.6 0.0
24/04:30am 17.4 17.1 15.4 88 1.2 SSE 11 19 6 10 1019.7 1019.5 0.0
24/04:00am 16.7 16.4 15.4 92 0.8 NW 11 15 6 8 1019.2 1019.0 0.0
24/03:30am 16.6 16.6 15.1 91 0.9 W 9 11 5 6 1020.4 1020.2 0.0
24/03:00am 16.6 16.3 15.5 93 0.6 W 11 19 6 10 1020.3 1020.1 0.0
24/02:30am 15.9 15.7 14.8 93 0.6 NW 9 13 5 7 1019.4 1019.2 0.0
24/02:00am 16.1 16.4 14.6 91 0.9 W 6 11 3 6 1019.5 1019.3 0.0
24/01:30am 17.5 18.4 16.0 91 0.9 SSW 6 9 3 5 1020.9 1020.7 0.0
24/01:00am 17.3 17.7 16.3 94 0.6 SSW 9 13 5 7 1021.2 1021.0 0.0
24/12:30am 16.7 17.1 15.2 91 0.9 S 7 11 4 6 1020.9 1020.7 0.0
24/12:00am 16.7 17.0 15.1 90 0.9 S 7 11 4 6 1020.8 1020.6 0.0
 
Date/Time
EDT
Tmp

°C
App
Tmp
°C
Dew
Point
°C
Rel
Hum
%
Delta-T

°C
Wind Press
QNH
hPa
Press
MSL
hPa
Rain
since
9 am
mm
Dir
 
Spd
km/h
Gust
km/h
Spd
kts
Gust
kts
23/11:30pm 17.3 18.3 15.3 88 1.2 ESE 4 6 2 3 1020.6 1020.4 0.0
23/11:00pm 17.4 18.0 15.4 88 1.2 SE 6 6 3 3 1020.7 1020.5 0.0
23/10:30pm 18.1 19.1 15.4 84 1.6 SE 4 6 2 3 1020.7 1020.5 0.0
23/10:00pm 18.4 18.9 14.9 80 2.0 SE 6 6 3 3 1020.7 1020.5 0.0
23/09:30pm 18.8 19.0 14.3 75 2.6 ESE 6 7 3 4 1020.3 1020.1 0.0
23/09:00pm 18.9 19.4 15.0 78 2.3 S 6 6 3 3 1019.7 1019.5 0.0

Latest Capital City Observations: Canberra | Sydney | Melbourne | Brisbane | Adelaide | Perth | Hobart | Darwin

Other Formats:

Comma delimited format used in spreadsheet applications
http://www.bom.gov.au/fwo/IDN60901/IDN60901.94752.axf

JavaScript Object Notation format (JSON) in row-major order
http://www.bom.gov.au/fwo/IDN60901/IDN60901.94752.json